AirNav   Everest Fuels
 
 1275 users online  

MO5 Bollinger-Crass Memorial Airport
Van Buren, Missouri, USA

GOING TO VAN BUREN?


FAA INFORMATION EFFECTIVE 22 APRIL 2021

Location

FAA Identifier: MO5
Lat/Long: 37-00-33.8000N 091-00-24.8000W
37-00.563333N 091-00.413333W
37.0093889,-91.0068889
(estimated)
Elevation: 652 ft. / 199 m (estimated)
Variation: 03E (1985)
From city: 1 mile N of VAN BUREN, MO
Time zone: UTC -5 (UTC -6 during Standard Time)
Zip code: 63965

Airport Operations

Airport use: Open to the public
Activation date: 02/1976
Control tower: no
ARTCC: MEMPHIS CENTER
FSS: SAINT LOUIS FLIGHT SERVICE STATION
NOTAMs facility: STL (NOTAM-D service available)
Attendance: UNATNDD
Wind indicator: no
Segmented circle: yes
POOR CONDITION
Beacon: BEACON OTS INDEFLY.

Airport Communications

CTAF: 122.9
WX AWOS-3PT at PYN (16 nm NE): 118.475 (573-223-2796)

Airport Services

Parking: tiedowns

Runway Information

Runway 2/20

Dimensions: 2600 x 50 ft. / 792 x 15 m
Surface: asphalt, in excellent condition
Runway edge markings: RWY 20 MKGS SVRLY FADED.
RUNWAY 2  RUNWAY 20
Latitude: 37-00.374667N37-00.753167N
Longitude: 091-00.539167W091-00.288333W
Elevation: 647.0 ft.652.0 ft.
Traffic pattern: leftleft
Markings: basic, in poor conditionbasic, in poor condition
Obstructions: 13 ft. brush, 278 ft. from runway, 70 ft. left of centerline, 6:1 slope to clear
RWY 02 1-17 FT BRUSH & TREES, TALL WEEDS & HIGH GND, 0-200 FT FM RWY END, L&R.
89 ft. trees, 1480 ft. from runway, 250 ft. left and right of centerline, 14:1 slope to clear
RWY 20 +1-33 FT BRUSH & TREES 0-75 FT FM RWY END, 100-120 FT L.

Airport Ownership and Management from official FAA records

Ownership: Publicly-owned
Owner: CITY OF VAN BUREN
PO BOX 40
VAN BUREN, MO 63965
Phone 573-323-4335
Manager: RON KEENEY
PO BOX 40
VAN BUREN, MO 63965
Phone 573-323-4335
PUBLIC WORKS DIRECTOR.

Airport Operational Statistics

Aircraft operations: avg 37/month *
80% transient general aviation
18% local general aviation
2% military
* for 12-month period ending 31 December 2019

Additional Remarks

DEER & WILDLIFE ON & INVOF ARPT.
NTSD RWY SAFETY AREA ALG SIDES OF RWY AND BYD RWY 20 END. LRG DROP-OFFS, INCOR TRRN GRADS, BRUSH & TREES.
FOR CD CTC MEMPHIS ARTCC AT 901-368-8453/8449.

Instrument Procedures

There are no published instrument procedures at MO5.

Some nearby airports with instrument procedures:

KMNF - Mountain View Airport (34 nm W)
KPOF - Poplar Bluff Regional Business Airport (36 nm SE)
4M9 - Corning Municipal Airport (40 nm SE)
KUNO - West Plains Regional Airport (44 nm W)
M70 - Pocahontas Municipal Airport (46 nm S)
 
Loc | Ops | Rwys | IFR | FBO | Links
Com | Nav | Svcs | Stats | Notes
Area around MO5 (Bollinger-Crass Memorial Airport)
 
Road maps at: MapQuest Bing Google
 
Aerial photo
WARNING: Photo may not be current or correct
Aerial photo of MO5 (Bollinger-Crass Memorial Airport)
Photo by Matt Barnes
Photo taken 07-Jul-2009

Do you have a better or more recent aerial photo of Bollinger-Crass Memorial Airport that you would like to share? If so, please send us your photo.

 
Sectional chart

 
Airport distance calculator
Flying to Bollinger-Crass Memorial Airport? Find the distance to fly.

From to MO5

Sunrise and sunset
Times for 05-May-2021
 Local
(UTC-5)
 Zulu
(UTC)
Morning civil twilight05:3810:38
Sunrise06:0611:06
Sunset19:5500:55
Evening civil twilight20:2301:23

Current date and time
Zulu (UTC)  05-May-2021 21:36:26
Local (UTC-5)  05-May-2021 16:36:26
 
METAR
KPOF 
36nm SE 
052053Z AUTO 02006KT 10SM FEW070 21/06 A3012 RMK AO2 SLP197 T02060061 56012
K4M9 
40nm SE 
052115Z AUTO 07008KT 10SM CLR 21/09 A3013 RMK AO2 PWINO
KUNO 
43nm W 
052053Z AUTO VRB03KT 10SM CLR 21/03 A3014 RMK AO2 SLP200 T02060028 56014
TAF
NOTAMs
Click for the latest NOTAMs
NOTAMs are issued by the DoD/FAA and will open in a separate window not controlled by AirNav.

 

 
 

Would you like to see your business listed on this page?

 If your business provides an interesting product or service to pilots, flight crews, aircraft, or users of the Bollinger-Crass Memorial Airport, you should consider listing it here.  To start the listing process, click on the button below
 
Add a business
 

Other Pages about Bollinger-Crass Memorial Airport

Update a link
 
Copyright © AirNav, LLC. All rights reserved. Privacy Policy  Contact